sensor_id;sensor_type;location;lat;lon;timestamp;temperature;humidity
37702;DHT22;23548;51.196;6.838;2023-09-07T00:00:14;17.70;99.90
37702;DHT22;23548;51.196;6.838;2023-09-07T00:02:40;17.60;99.90
37702;DHT22;23548;51.196;6.838;2023-09-07T00:05:06;17.60;99.90
37702;DHT22;23548;51.196;6.838;2023-09-07T00:07:33;17.60;99.90
37702;DHT22;23548;51.196;6.838;2023-09-07T00:09:59;17.60;99.90
37702;DHT22;23548;51.196;6.838;2023-09-07T00:12:25;17.50;99.90
37702;DHT22;23548;51.196;6.838;2023-09-07T00:14:53;17.40;99.90
37702;DHT22;23548;51.196;6.838;2023-09-07T00:17:20;17.40;99.90
37702;DHT22;23548;51.196;6.838;2023-09-07T00:19:46;17.40;99.90
37702;DHT22;23548;51.196;6.838;2023-09-07T00:22:14;17.40;99.90
37702;DHT22;23548;51.196;6.838;2023-09-07T00:24:40;17.30;99.90
37702;DHT22;23548;51.196;6.838;2023-09-07T00:27:06;17.30;99.90
37702;DHT22;23548;51.196;6.838;2023-09-07T00:29:36;17.30;99.90
37702;DHT22;23548;51.196;6.838;2023-09-07T00:32:02;17.20;99.90
37702;DHT22;23548;51.196;6.838;2023-09-07T00:34:28;17.20;99.90
37702;DHT22;23548;51.196;6.838;2023-09-07T00:36:54;17.20;99.90
37702;DHT22;23548;51.196;6.838;2023-09-07T00:39:19;17.20;99.90
37702;DHT22;23548;51.196;6.838;2023-09-07T00:41:45;17.10;99.90
37702;DHT22;23548;51.196;6.838;2023-09-07T00:44:11;17.10;99.90
37702;DHT22;23548;51.196;6.838;2023-09-07T00:46:37;17.00;99.90
37702;DHT22;23548;51.196;6.838;2023-09-07T00:49:03;17.00;99.90
37702;DHT22;23548;51.196;6.838;2023-09-07T00:51:30;17.00;99.90
37702;DHT22;23548;51.196;6.838;2023-09-07T00:53:56;16.90;99.90
37702;DHT22;23548;51.196;6.838;2023-09-07T00:56:22;16.90;99.90
37702;DHT22;23548;51.196;6.838;2023-09-07T00:58:50;16.80;99.90
37702;DHT22;23548;51.196;6.838;2023-09-07T01:01:17;16.80;99.90
37702;DHT22;23548;51.196;6.838;2023-09-07T01:03:42;16.70;99.90
37702;DHT22;23548;51.196;6.838;2023-09-07T01:06:15;16.70;99.90
37702;DHT22;23548;51.196;6.838;2023-09-07T01:08:46;16.70;99.90
37702;DHT22;23548;51.196;6.838;2023-09-07T01:11:19;16.60;99.90
37702;DHT22;23548;51.196;6.838;2023-09-07T01:13:52;16.60;99.90
37702;DHT22;23548;51.196;6.838;2023-09-07T01:16:20;16.60;99.90
37702;DHT22;23548;51.196;6.838;2023-09-07T01:18:46;16.60;99.90
37702;DHT22;23548;51.196;6.838;2023-09-07T01:21:19;16.60;99.90
37702;DHT22;23548;51.196;6.838;2023-09-07T01:23:45;16.60;99.90
37702;DHT22;23548;51.196;6.838;2023-09-07T01:26:12;16.60;99.90
37702;DHT22;23548;51.196;6.838;2023-09-07T01:28:38;16.50;99.90
37702;DHT22;23548;51.196;6.838;2023-09-07T01:31:04;16.50;99.90
37702;DHT22;23548;51.196;6.838;2023-09-07T01:33:30;16.50;99.90
37702;DHT22;23548;51.196;6.838;2023-09-07T01:35:56;16.50;99.90
37702;DHT22;23548;51.196;6.838;2023-09-07T01:38:21;16.40;99.90
37702;DHT22;23548;51.196;6.838;2023-09-07T01:40:47;16.40;99.90
37702;DHT22;23548;51.196;6.838;2023-09-07T01:43:13;16.40;99.90
37702;DHT22;23548;51.196;6.838;2023-09-07T01:45:38;16.40;99.90
37702;DHT22;23548;51.196;6.838;2023-09-07T01:48:11;16.30;99.90
37702;DHT22;23548;51.196;6.838;2023-09-07T01:50:37;16.40;99.90
37702;DHT22;23548;51.196;6.838;2023-09-07T01:53:03;16.30;99.90
37702;DHT22;23548;51.196;6.838;2023-09-07T01:55:30;16.30;99.90
37702;DHT22;23548;51.196;6.838;2023-09-07T01:57:56;16.40;99.90
37702;DHT22;23548;51.196;6.838;2023-09-07T02:00:22;16.40;99.90
37702;DHT22;23548;51.196;6.838;2023-09-07T02:02:47;16.30;99.90
37702;DHT22;23548;51.196;6.838;2023-09-07T02:05:13;16.20;99.90
37702;DHT22;23548;51.196;6.838;2023-09-07T02:07:39;16.10;99.90
37702;DHT22;23548;51.196;6.838;2023-09-07T02:10:05;16.10;99.90
37702;DHT22;23548;51.196;6.838;2023-09-07T02:12:31;16.00;99.90
37702;DHT22;23548;51.196;6.838;2023-09-07T02:14:58;16.00;99.90
37702;DHT22;23548;51.196;6.838;2023-09-07T02:17:24;16.00;99.90
37702;DHT22;23548;51.196;6.838;2023-09-07T02:19:50;16.00;99.90
37702;DHT22;23548;51.196;6.838;2023-09-07T02:22:16;15.90;99.90
37702;DHT22;23548;51.196;6.838;2023-09-07T02:24:42;15.90;99.90
37702;DHT22;23548;51.196;6.838;2023-09-07T02:27:07;15.90;99.90
37702;DHT22;23548;51.196;6.838;2023-09-07T02:29:33;15.80;99.90
37702;DHT22;23548;51.196;6.838;2023-09-07T02:31:59;15.80;99.90
37702;DHT22;23548;51.196;6.838;2023-09-07T02:34:24;15.80;99.90
37702;DHT22;23548;51.196;6.838;2023-09-07T02:36:50;15.70;99.90
37702;DHT22;23548;51.196;6.838;2023-09-07T02:39:16;15.70;99.90
37702;DHT22;23548;51.196;6.838;2023-09-07T02:41:42;15.70;99.90
37702;DHT22;23548;51.196;6.838;2023-09-07T02:44:08;15.70;99.90
37702;DHT22;23548;51.196;6.838;2023-09-07T02:46:34;15.70;99.90
37702;DHT22;23548;51.196;6.838;2023-09-07T02:48:59;15.70;99.90
37702;DHT22;23548;51.196;6.838;2023-09-07T02:51:25;15.70;99.90
37702;DHT22;23548;51.196;6.838;2023-09-07T02:53:53;15.60;99.90
37702;DHT22;23548;51.196;6.838;2023-09-07T02:56:19;15.60;99.90
37702;DHT22;23548;51.196;6.838;2023-09-07T02:58:45;15.60;99.90
37702;DHT22;23548;51.196;6.838;2023-09-07T03:01:11;15.60;99.90
37702;DHT22;23548;51.196;6.838;2023-09-07T03:03:37;15.60;99.90
37702;DHT22;23548;51.196;6.838;2023-09-07T03:06:10;15.60;99.90
37702;DHT22;23548;51.196;6.838;2023-09-07T03:08:36;15.60;99.90
37702;DHT22;23548;51.196;6.838;2023-09-07T03:11:05;15.50;99.90
37702;DHT22;23548;51.196;6.838;2023-09-07T03:13:32;15.50;99.90
37702;DHT22;23548;51.196;6.838;2023-09-07T03:15:58;15.50;99.90
37702;DHT22;23548;51.196;6.838;2023-09-07T03:18:23;15.40;99.90
37702;DHT22;23548;51.196;6.838;2023-09-07T03:20:54;15.40;99.90
37702;DHT22;23548;51.196;6.838;2023-09-07T03:23:21;15.40;99.90
37702;DHT22;23548;51.196;6.838;2023-09-07T03:25:48;15.40;99.90
37702;DHT22;23548;51.196;6.838;2023-09-07T03:28:14;15.40;99.90
37702;DHT22;23548;51.196;6.838;2023-09-07T03:30:39;15.30;99.90
37702;DHT22;23548;51.196;6.838;2023-09-07T03:33:06;15.30;99.90
37702;DHT22;23548;51.196;6.838;2023-09-07T03:35:32;15.30;99.90
37702;DHT22;23548;51.196;6.838;2023-09-07T03:37:58;15.20;99.90
37702;DHT22;23548;51.196;6.838;2023-09-07T03:40:24;15.20;99.90
37702;DHT22;23548;51.196;6.838;2023-09-07T03:42:50;15.20;99.90
37702;DHT22;23548;51.196;6.838;2023-09-07T03:45:15;15.20;99.90
37702;DHT22;23548;51.196;6.838;2023-09-07T03:47:42;15.20;99.90
37702;DHT22;23548;51.196;6.838;2023-09-07T03:50:08;15.20;99.90
37702;DHT22;23548;51.196;6.838;2023-09-07T03:52:34;15.20;99.90
37702;DHT22;23548;51.196;6.838;2023-09-07T03:55:00;15.20;99.90
37702;DHT22;23548;51.196;6.838;2023-09-07T03:57:27;15.20;99.90
37702;DHT22;23548;51.196;6.838;2023-09-07T03:59:53;15.20;99.90
37702;DHT22;23548;51.196;6.838;2023-09-07T04:02:21;15.20;99.90
37702;DHT22;23548;51.196;6.838;2023-09-07T04:04:50;15.20;99.90
37702;DHT22;23548;51.196;6.838;2023-09-07T04:07:16;15.20;99.90
37702;DHT22;23548;51.196;6.838;2023-09-07T04:09:42;15.20;99.90
37702;DHT22;23548;51.196;6.838;2023-09-07T04:12:09;15.10;99.90
37702;DHT22;23548;51.196;6.838;2023-09-07T04:14:34;15.10;99.90
37702;DHT22;23548;51.196;6.838;2023-09-07T04:17:01;15.10;99.90
37702;DHT22;23548;51.196;6.838;2023-09-07T04:19:26;15.10;99.90
37702;DHT22;23548;51.196;6.838;2023-09-07T04:21:52;15.10;99.90
37702;DHT22;23548;51.196;6.838;2023-09-07T04:24:18;15.20;99.90
37702;DHT22;23548;51.196;6.838;2023-09-07T04:26:44;15.10;99.90
37702;DHT22;23548;51.196;6.838;2023-09-07T04:29:10;15.00;99.90
37702;DHT22;23548;51.196;6.838;2023-09-07T04:31:37;15.00;99.90
37702;DHT22;23548;51.196;6.838;2023-09-07T04:34:03;15.00;99.90
37702;DHT22;23548;51.196;6.838;2023-09-07T04:36:28;15.00;99.90
37702;DHT22;23548;51.196;6.838;2023-09-07T04:38:54;15.00;99.90
37702;DHT22;23548;51.196;6.838;2023-09-07T04:41:20;15.00;99.90
37702;DHT22;23548;51.196;6.838;2023-09-07T04:43:45;15.00;99.90
37702;DHT22;23548;51.196;6.838;2023-09-07T04:46:12;15.00;99.90
37702;DHT22;23548;51.196;6.838;2023-09-07T04:48:39;15.00;99.90
37702;DHT22;23548;51.196;6.838;2023-09-07T04:51:09;15.00;99.90
37702;DHT22;23548;51.196;6.838;2023-09-07T04:53:37;15.00;99.90
37702;DHT22;23548;51.196;6.838;2023-09-07T04:56:04;15.00;99.90
37702;DHT22;23548;51.196;6.838;2023-09-07T04:58:30;15.00;99.90
37702;DHT22;23548;51.196;6.838;2023-09-07T05:01:05;15.00;99.90
37702;DHT22;23548;51.196;6.838;2023-09-07T05:03:31;15.00;99.90
37702;DHT22;23548;51.196;6.838;2023-09-07T05:05:57;15.00;99.90
37702;DHT22;23548;51.196;6.838;2023-09-07T05:08:23;15.00;99.90
37702;DHT22;23548;51.196;6.838;2023-09-07T05:10:59;15.10;99.90
37702;DHT22;23548;51.196;6.838;2023-09-07T05:13:26;15.20;99.90
37702;DHT22;23548;51.196;6.838;2023-09-07T05:15:53;15.30;99.90
37702;DHT22;23548;51.196;6.838;2023-09-07T05:18:20;15.40;99.90
37702;DHT22;23548;51.196;6.838;2023-09-07T05:20:46;15.40;99.90
37702;DHT22;23548;51.196;6.838;2023-09-07T05:23:14;15.50;99.90
37702;DHT22;23548;51.196;6.838;2023-09-07T05:25:45;15.50;99.90
37702;DHT22;23548;51.196;6.838;2023-09-07T05:28:12;15.60;99.90
37702;DHT22;23548;51.196;6.838;2023-09-07T05:30:39;15.60;99.90
37702;DHT22;23548;51.196;6.838;2023-09-07T05:33:04;15.60;99.90
37702;DHT22;23548;51.196;6.838;2023-09-07T05:35:30;15.70;99.90
37702;DHT22;23548;51.196;6.838;2023-09-07T05:37:58;15.80;99.90
37702;DHT22;23548;51.196;6.838;2023-09-07T05:40:24;15.80;99.90
37702;DHT22;23548;51.196;6.838;2023-09-07T05:42:49;15.90;99.90
37702;DHT22;23548;51.196;6.838;2023-09-07T05:45:15;15.90;99.90
37702;DHT22;23548;51.196;6.838;2023-09-07T05:47:41;15.90;99.90
37702;DHT22;23548;51.196;6.838;2023-09-07T05:50:07;16.00;99.90
37702;DHT22;23548;51.196;6.838;2023-09-07T05:52:32;16.10;99.90
37702;DHT22;23548;51.196;6.838;2023-09-07T05:54:58;16.10;99.90
37702;DHT22;23548;51.196;6.838;2023-09-07T05:57:24;16.20;99.90
37702;DHT22;23548;51.196;6.838;2023-09-07T05:59:49;16.30;99.90
37702;DHT22;23548;51.196;6.838;2023-09-07T06:02:15;16.40;99.90
37702;DHT22;23548;51.196;6.838;2023-09-07T06:04:41;16.50;99.90
37702;DHT22;23548;51.196;6.838;2023-09-07T06:07:07;16.60;99.90
37702;DHT22;23548;51.196;6.838;2023-09-07T06:09:32;16.70;99.90
37702;DHT22;23548;51.196;6.838;2023-09-07T06:11:58;16.70;99.90
37702;DHT22;23548;51.196;6.838;2023-09-07T06:14:24;16.90;99.90
37702;DHT22;23548;51.196;6.838;2023-09-07T06:16:49;17.00;99.90
37702;DHT22;23548;51.196;6.838;2023-09-07T06:19:15;17.10;99.90
37702;DHT22;23548;51.196;6.838;2023-09-07T06:21:42;17.30;99.90
37702;DHT22;23548;51.196;6.838;2023-09-07T06:24:08;17.40;99.90
37702;DHT22;23548;51.196;6.838;2023-09-07T06:26:33;17.50;99.90
37702;DHT22;23548;51.196;6.838;2023-09-07T06:28:59;17.70;99.90
37702;DHT22;23548;51.196;6.838;2023-09-07T06:31:25;17.80;99.90
37702;DHT22;23548;51.196;6.838;2023-09-07T06:33:50;18.00;99.90
37702;DHT22;23548;51.196;6.838;2023-09-07T06:36:16;18.10;99.90
37702;DHT22;23548;51.196;6.838;2023-09-07T06:38:42;18.20;99.90
37702;DHT22;23548;51.196;6.838;2023-09-07T06:41:08;18.30;99.90
37702;DHT22;23548;51.196;6.838;2023-09-07T06:43:35;18.40;99.90
37702;DHT22;23548;51.196;6.838;2023-09-07T06:46:08;18.50;99.90
37702;DHT22;23548;51.196;6.838;2023-09-07T06:48:35;18.70;99.90
37702;DHT22;23548;51.196;6.838;2023-09-07T06:51:05;18.80;99.90
37702;DHT22;23548;51.196;6.838;2023-09-07T06:53:31;18.90;99.90
37702;DHT22;23548;51.196;6.838;2023-09-07T06:56:01;19.10;99.90
37702;DHT22;23548;51.196;6.838;2023-09-07T06:58:28;19.20;99.90
37702;DHT22;23548;51.196;6.838;2023-09-07T07:01:00;19.30;99.90
37702;DHT22;23548;51.196;6.838;2023-09-07T07:03:30;19.40;99.90
37702;DHT22;23548;51.196;6.838;2023-09-07T07:05:56;19.60;99.90
37702;DHT22;23548;51.196;6.838;2023-09-07T07:08:22;19.70;99.90
37702;DHT22;23548;51.196;6.838;2023-09-07T07:10:49;19.80;99.90
37702;DHT22;23548;51.196;6.838;2023-09-07T07:13:15;20.00;99.90
37702;DHT22;23548;51.196;6.838;2023-09-07T07:15:41;20.00;99.90
37702;DHT22;23548;51.196;6.838;2023-09-07T07:18:07;20.10;99.90
37702;DHT22;23548;51.196;6.838;2023-09-07T07:20:39;20.20;99.90
37702;DHT22;23548;51.196;6.838;2023-09-07T07:23:05;20.40;99.90
37702;DHT22;23548;51.196;6.838;2023-09-07T07:25:33;20.50;99.90
37702;DHT22;23548;51.196;6.838;2023-09-07T07:28:00;20.60;99.90
37702;DHT22;23548;51.196;6.838;2023-09-07T07:30:29;20.70;99.90
37702;DHT22;23548;51.196;6.838;2023-09-07T07:32:55;20.80;99.90
37702;DHT22;23548;51.196;6.838;2023-09-07T07:35:21;20.90;99.90
37702;DHT22;23548;51.196;6.838;2023-09-07T07:37:47;21.00;99.90
37702;DHT22;23548;51.196;6.838;2023-09-07T07:40:14;21.20;99.90
37702;DHT22;23548;51.196;6.838;2023-09-07T07:42:39;21.30;99.90
37702;DHT22;23548;51.196;6.838;2023-09-07T07:45:06;21.50;99.90
37702;DHT22;23548;51.196;6.838;2023-09-07T07:47:32;21.50;99.90
37702;DHT22;23548;51.196;6.838;2023-09-07T07:49:58;21.70;99.90
37702;DHT22;23548;51.196;6.838;2023-09-07T07:52:23;21.80;99.90
37702;DHT22;23548;51.196;6.838;2023-09-07T07:54:49;22.00;99.90
37702;DHT22;23548;51.196;6.838;2023-09-07T07:57:15;22.20;99.90
37702;DHT22;23548;51.196;6.838;2023-09-07T07:59:40;22.40;99.90
37702;DHT22;23548;51.196;6.838;2023-09-07T08:02:06;22.60;99.90
37702;DHT22;23548;51.196;6.838;2023-09-07T08:04:32;22.70;99.90
37702;DHT22;23548;51.196;6.838;2023-09-07T08:06:58;22.90;99.90
37702;DHT22;23548;51.196;6.838;2023-09-07T08:09:29;23.00;99.90
37702;DHT22;23548;51.196;6.838;2023-09-07T08:11:55;23.10;99.90
37702;DHT22;23548;51.196;6.838;2023-09-07T08:14:21;23.20;99.90
37702;DHT22;23548;51.196;6.838;2023-09-07T08:16:48;23.20;99.90
37702;DHT22;23548;51.196;6.838;2023-09-07T08:19:13;23.30;99.90
37702;DHT22;23548;51.196;6.838;2023-09-07T08:21:39;23.40;99.90
37702;DHT22;23548;51.196;6.838;2023-09-07T08:24:08;23.50;99.90
37702;DHT22;23548;51.196;6.838;2023-09-07T08:26:35;23.60;99.90
37702;DHT22;23548;51.196;6.838;2023-09-07T08:29:01;23.60;99.90
37702;DHT22;23548;51.196;6.838;2023-09-07T08:31:34;23.70;99.90
37702;DHT22;23548;51.196;6.838;2023-09-07T08:34:07;23.70;99.90
37702;DHT22;23548;51.196;6.838;2023-09-07T08:36:34;23.80;99.90
37702;DHT22;23548;51.196;6.838;2023-09-07T08:39:01;23.90;99.90
37702;DHT22;23548;51.196;6.838;2023-09-07T08:41:32;24.00;99.90
37702;DHT22;23548;51.196;6.838;2023-09-07T08:44:00;24.00;99.90
37702;DHT22;23548;51.196;6.838;2023-09-07T08:46:26;24.10;99.90
37702;DHT22;23548;51.196;6.838;2023-09-07T08:48:54;24.20;99.90
37702;DHT22;23548;51.196;6.838;2023-09-07T08:51:21;24.20;99.90
37702;DHT22;23548;51.196;6.838;2023-09-07T08:53:48;24.30;99.90
37702;DHT22;23548;51.196;6.838;2023-09-07T08:56:16;24.30;99.90
37702;DHT22;23548;51.196;6.838;2023-09-07T08:58:43;24.40;99.90
37702;DHT22;23548;51.196;6.838;2023-09-07T09:01:10;24.40;99.90
37702;DHT22;23548;51.196;6.838;2023-09-07T09:03:36;24.50;99.90
37702;DHT22;23548;51.196;6.838;2023-09-07T09:06:03;24.50;99.90
37702;DHT22;23548;51.196;6.838;2023-09-07T09:08:29;24.60;99.90
37702;DHT22;23548;51.196;6.838;2023-09-07T09:11:01;24.70;99.90
37702;DHT22;23548;51.196;6.838;2023-09-07T09:13:32;24.80;99.90
37702;DHT22;23548;51.196;6.838;2023-09-07T09:16:01;24.80;99.90
37702;DHT22;23548;51.196;6.838;2023-09-07T09:18:29;24.90;99.90
37702;DHT22;23548;51.196;6.838;2023-09-07T09:20:56;24.90;99.90
37702;DHT22;23548;51.196;6.838;2023-09-07T09:23:22;24.90;99.90
37702;DHT22;23548;51.196;6.838;2023-09-07T09:25:48;24.90;99.90
37702;DHT22;23548;51.196;6.838;2023-09-07T09:28:14;25.00;99.90
37702;DHT22;23548;51.196;6.838;2023-09-07T09:30:41;25.10;99.90
37702;DHT22;23548;51.196;6.838;2023-09-07T09:33:10;25.20;99.90
37702;DHT22;23548;51.196;6.838;2023-09-07T09:35:36;25.20;99.90
37702;DHT22;23548;51.196;6.838;2023-09-07T09:38:02;25.30;99.90
37702;DHT22;23548;51.196;6.838;2023-09-07T09:40:34;25.40;99.90
37702;DHT22;23548;51.196;6.838;2023-09-07T09:43:02;25.50;99.90
37702;DHT22;23548;51.196;6.838;2023-09-07T09:45:28;25.50;99.90
37702;DHT22;23548;51.196;6.838;2023-09-07T09:47:54;25.60;99.90
37702;DHT22;23548;51.196;6.838;2023-09-07T09:50:25;25.60;99.90
37702;DHT22;23548;51.196;6.838;2023-09-07T09:52:52;25.60;99.90
37702;DHT22;23548;51.196;6.838;2023-09-07T09:55:22;25.60;99.90
37702;DHT22;23548;51.196;6.838;2023-09-07T09:57:48;25.70;99.90
37702;DHT22;23548;51.196;6.838;2023-09-07T10:00:15;25.70;99.90
37702;DHT22;23548;51.196;6.838;2023-09-07T10:02:51;25.70;99.90
37702;DHT22;23548;51.196;6.838;2023-09-07T10:05:18;25.80;99.90
37702;DHT22;23548;51.196;6.838;2023-09-07T10:07:48;25.90;99.90
37702;DHT22;23548;51.196;6.838;2023-09-07T10:10:14;25.90;99.90
37702;DHT22;23548;51.196;6.838;2023-09-07T10:12:45;26.00;99.90
37702;DHT22;23548;51.196;6.838;2023-09-07T10:15:24;26.10;99.90
37702;DHT22;23548;51.196;6.838;2023-09-07T10:17:50;26.30;99.90
37702;DHT22;23548;51.196;6.838;2023-09-07T10:20:27;26.40;99.90
37702;DHT22;23548;51.196;6.838;2023-09-07T10:23:02;26.40;99.90
37702;DHT22;23548;51.196;6.838;2023-09-07T10:25:30;26.40;99.90
37702;DHT22;23548;51.196;6.838;2023-09-07T10:27:56;26.50;99.90
37702;DHT22;23548;51.196;6.838;2023-09-07T10:30:22;26.50;99.90
37702;DHT22;23548;51.196;6.838;2023-09-07T10:32:49;26.50;99.90
37702;DHT22;23548;51.196;6.838;2023-09-07T10:35:16;26.50;99.90
37702;DHT22;23548;51.196;6.838;2023-09-07T10:37:45;26.50;99.90
37702;DHT22;23548;51.196;6.838;2023-09-07T10:40:21;26.60;99.90
37702;DHT22;23548;51.196;6.838;2023-09-07T10:42:47;26.60;99.90
37702;DHT22;23548;51.196;6.838;2023-09-07T10:45:15;26.60;99.90
37702;DHT22;23548;51.196;6.838;2023-09-07T10:47:43;26.60;99.90
37702;DHT22;23548;51.196;6.838;2023-09-07T10:50:13;26.70;99.90
37702;DHT22;23548;51.196;6.838;2023-09-07T10:52:42;26.70;99.90
37702;DHT22;23548;51.196;6.838;2023-09-07T10:55:08;26.80;99.90
37702;DHT22;23548;51.196;6.838;2023-09-07T10:57:43;26.80;99.90
37702;DHT22;23548;51.196;6.838;2023-09-07T11:00:10;27.00;99.90
37702;DHT22;23548;51.196;6.838;2023-09-07T11:02:37;27.00;99.90
37702;DHT22;23548;51.196;6.838;2023-09-07T11:05:04;27.10;99.90
37702;DHT22;23548;51.196;6.838;2023-09-07T11:07:30;27.10;99.90
37702;DHT22;23548;51.196;6.838;2023-09-07T11:09:56;27.20;99.90
37702;DHT22;23548;51.196;6.838;2023-09-07T11:12:21;27.30;99.90
37702;DHT22;23548;51.196;6.838;2023-09-07T11:14:48;27.40;99.90
37702;DHT22;23548;51.196;6.838;2023-09-07T11:17:14;27.50;99.90
37702;DHT22;23548;51.196;6.838;2023-09-07T11:19:41;27.50;99.90
37702;DHT22;23548;51.196;6.838;2023-09-07T11:22:09;27.60;99.90
37702;DHT22;23548;51.196;6.838;2023-09-07T11:24:35;27.60;99.90
37702;DHT22;23548;51.196;6.838;2023-09-07T11:27:01;27.70;99.90
37702;DHT22;23548;51.196;6.838;2023-09-07T11:29:31;27.70;99.90
37702;DHT22;23548;51.196;6.838;2023-09-07T11:32:07;27.80;99.90
37702;DHT22;23548;51.196;6.838;2023-09-07T11:34:34;27.70;99.90
37702;DHT22;23548;51.196;6.838;2023-09-07T11:37:03;27.70;99.90
37702;DHT22;23548;51.196;6.838;2023-09-07T11:39:29;27.80;99.90
37702;DHT22;23548;51.196;6.838;2023-09-07T11:41:54;27.80;99.90
37702;DHT22;23548;51.196;6.838;2023-09-07T11:44:20;27.80;99.90
37702;DHT22;23548;51.196;6.838;2023-09-07T11:46:46;27.80;99.90
37702;DHT22;23548;51.196;6.838;2023-09-07T11:49:12;27.80;99.90
37702;DHT22;23548;51.196;6.838;2023-09-07T11:51:39;27.90;99.90
37702;DHT22;23548;51.196;6.838;2023-09-07T11:54:05;28.00;99.90
37702;DHT22;23548;51.196;6.838;2023-09-07T11:56:31;28.00;99.90
37702;DHT22;23548;51.196;6.838;2023-09-07T11:58:57;28.00;99.90
37702;DHT22;23548;51.196;6.838;2023-09-07T12:01:23;28.10;99.90
37702;DHT22;23548;51.196;6.838;2023-09-07T12:03:48;28.00;99.90
37702;DHT22;23548;51.196;6.838;2023-09-07T12:06:14;28.20;99.90
37702;DHT22;23548;51.196;6.838;2023-09-07T12:08:42;28.30;99.90
37702;DHT22;23548;51.196;6.838;2023-09-07T12:11:22;28.40;99.90
37702;DHT22;23548;51.196;6.838;2023-09-07T12:13:48;28.40;99.90
37702;DHT22;23548;51.196;6.838;2023-09-07T12:16:14;28.50;99.90
37702;DHT22;23548;51.196;6.838;2023-09-07T12:18:40;28.40;99.90
37702;DHT22;23548;51.196;6.838;2023-09-07T12:21:06;28.50;99.90
37702;DHT22;23548;51.196;6.838;2023-09-07T12:23:32;28.60;99.90
37702;DHT22;23548;51.196;6.838;2023-09-07T12:25:58;28.60;99.90
37702;DHT22;23548;51.196;6.838;2023-09-07T12:28:23;28.60;99.90
37702;DHT22;23548;51.196;6.838;2023-09-07T12:30:49;28.60;99.90
37702;DHT22;23548;51.196;6.838;2023-09-07T12:33:15;28.60;99.90
37702;DHT22;23548;51.196;6.838;2023-09-07T12:35:40;28.60;99.90
37702;DHT22;23548;51.196;6.838;2023-09-07T12:38:06;28.60;99.90
37702;DHT22;23548;51.196;6.838;2023-09-07T12:40:34;28.70;99.90
37702;DHT22;23548;51.196;6.838;2023-09-07T12:43:00;28.70;99.90
37702;DHT22;23548;51.196;6.838;2023-09-07T12:45:25;28.70;99.90
37702;DHT22;23548;51.196;6.838;2023-09-07T12:47:51;28.80;99.90
37702;DHT22;23548;51.196;6.838;2023-09-07T12:50:17;28.80;99.90
37702;DHT22;23548;51.196;6.838;2023-09-07T12:52:42;28.90;99.90
37702;DHT22;23548;51.196;6.838;2023-09-07T12:55:08;28.90;99.90
37702;DHT22;23548;51.196;6.838;2023-09-07T12:57:34;28.80;99.90
37702;DHT22;23548;51.196;6.838;2023-09-07T13:00:03;28.90;99.90
37702;DHT22;23548;51.196;6.838;2023-09-07T13:02:29;29.10;99.90
37702;DHT22;23548;51.196;6.838;2023-09-07T13:04:55;29.20;98.80
37702;DHT22;23548;51.196;6.838;2023-09-07T13:07:21;29.30;99.90
37702;DHT22;23548;51.196;6.838;2023-09-07T13:09:47;29.30;96.40
37702;DHT22;23548;51.196;6.838;2023-09-07T13:12:12;29.40;98.60
37702;DHT22;23548;51.196;6.838;2023-09-07T13:14:38;29.30;98.10
37702;DHT22;23548;51.196;6.838;2023-09-07T13:17:04;29.20;98.30
37702;DHT22;23548;51.196;6.838;2023-09-07T13:19:30;29.30;97.70
37702;DHT22;23548;51.196;6.838;2023-09-07T13:21:55;29.30;98.80
37702;DHT22;23548;51.196;6.838;2023-09-07T13:24:21;29.30;98.40
37702;DHT22;23548;51.196;6.838;2023-09-07T13:26:50;29.50;98.50
37702;DHT22;23548;51.196;6.838;2023-09-07T13:29:15;29.40;94.90
37702;DHT22;23548;51.196;6.838;2023-09-07T13:31:41;29.50;97.70
37702;DHT22;23548;51.196;6.838;2023-09-07T13:34:07;29.70;97.40
37702;DHT22;23548;51.196;6.838;2023-09-07T13:36:32;29.90;96.90
37702;DHT22;23548;51.196;6.838;2023-09-07T13:38:58;29.80;96.00
37702;DHT22;23548;51.196;6.838;2023-09-07T13:41:25;29.80;96.10
37702;DHT22;23548;51.196;6.838;2023-09-07T13:43:50;29.80;96.30
37702;DHT22;23548;51.196;6.838;2023-09-07T13:46:16;29.80;96.10
37702;DHT22;23548;51.196;6.838;2023-09-07T13:48:42;30.40;95.70
37702;DHT22;23548;51.196;6.838;2023-09-07T13:51:08;32.10;92.20
37702;DHT22;23548;51.196;6.838;2023-09-07T13:53:33;34.20;85.70
37702;DHT22;23548;51.196;6.838;2023-09-07T13:55:59;35.10;78.50
37702;DHT22;23548;51.196;6.838;2023-09-07T13:58:25;36.40;71.60
37702;DHT22;23548;51.196;6.838;2023-09-07T14:00:50;36.10;66.80
37702;DHT22;23548;51.196;6.838;2023-09-07T14:03:16;36.10;63.90
37702;DHT22;23548;51.196;6.838;2023-09-07T14:05:42;36.90;63.20
37702;DHT22;23548;51.196;6.838;2023-09-07T14:08:08;38.30;59.00
37702;DHT22;23548;51.196;6.838;2023-09-07T14:10:33;39.20;55.30
37702;DHT22;23548;51.196;6.838;2023-09-07T14:12:59;40.20;52.80
37702;DHT22;23548;51.196;6.838;2023-09-07T14:15:25;39.70;50.40
37702;DHT22;23548;51.196;6.838;2023-09-07T14:17:51;40.30;48.80
37702;DHT22;23548;51.196;6.838;2023-09-07T14:20:16;40.60;47.30
37702;DHT22;23548;51.196;6.838;2023-09-07T14:22:42;40.20;47.90
37702;DHT22;23548;51.196;6.838;2023-09-07T14:25:08;40.90;44.90
37702;DHT22;23548;51.196;6.838;2023-09-07T14:27:34;40.00;45.10
37702;DHT22;23548;51.196;6.838;2023-09-07T14:29:59;40.60;45.60
37702;DHT22;23548;51.196;6.838;2023-09-07T14:32:25;41.40;44.50
37702;DHT22;23548;51.196;6.838;2023-09-07T14:34:51;42.20;42.50
37702;DHT22;23548;51.196;6.838;2023-09-07T14:37:16;41.70;40.70
37702;DHT22;23548;51.196;6.838;2023-09-07T14:39:42;39.50;42.70
37702;DHT22;23548;51.196;6.838;2023-09-07T14:42:13;39.50;43.80
37702;DHT22;23548;51.196;6.838;2023-09-07T14:44:42;40.60;43.50
37702;DHT22;23548;51.196;6.838;2023-09-07T14:47:08;40.50;42.60
37702;DHT22;23548;51.196;6.838;2023-09-07T14:49:33;40.20;43.40
37702;DHT22;23548;51.196;6.838;2023-09-07T14:51:59;40.50;42.70
37702;DHT22;23548;51.196;6.838;2023-09-07T14:54:25;41.30;42.10
37702;DHT22;23548;51.196;6.838;2023-09-07T14:56:51;41.10;41.90
37702;DHT22;23548;51.196;6.838;2023-09-07T14:59:17;40.20;42.70
37702;DHT22;23548;51.196;6.838;2023-09-07T15:01:42;40.20;42.80
37702;DHT22;23548;51.196;6.838;2023-09-07T15:04:08;41.10;41.30
37702;DHT22;23548;51.196;6.838;2023-09-07T15:06:34;41.40;40.20
37702;DHT22;23548;51.196;6.838;2023-09-07T15:09:00;42.20;39.10
37702;DHT22;23548;51.196;6.838;2023-09-07T15:11:25;40.90;39.80
37702;DHT22;23548;51.196;6.838;2023-09-07T15:13:51;41.40;40.20
37702;DHT22;23548;51.196;6.838;2023-09-07T15:16:18;40.20;39.80
37702;DHT22;23548;51.196;6.838;2023-09-07T15:18:44;40.90;40.60
37702;DHT22;23548;51.196;6.838;2023-09-07T15:21:10;40.60;40.40
37702;DHT22;23548;51.196;6.838;2023-09-07T15:23:36;40.80;40.40
37702;DHT22;23548;51.196;6.838;2023-09-07T15:26:02;40.80;39.80